Time;durP1;ratioP1;P1;durP2;ratioP2;P2;SDS_P1;SDS_P2;PMS_P1;PMS_P2;Temp;Humidity;BMP_temperature;BMP_pressure;BME280_temperature;BME280_humidity;BME280_pressure;Samples;Min_cycle;Max_cycle;Signal;HPM_P1;HPM_P2
2024/01/14 00:00:33;;;;;;;16.40;13.17;;;;;21.40;100406.00;;;;2053441;28;20219;-57
2024/01/14 00:01:33;;;;;;;15.38;12.38;;;;;21.20;100411.00;;;;2046314;28;20750;-56
2024/01/14 00:02:34;;;;;;;15.03;11.70;;;;;21.40;100449.00;;;;2043384;28;20270;-58
2024/01/14 00:03:36;;;;;;;15.00;12.20;;;;;21.40;100413.00;;;;2059984;28;20223;-57
2024/01/14 00:04:37;;;;;;;15.23;11.57;;;;;21.40;100411.00;;;;2045851;28;20463;-58
2024/01/14 00:05:37;;;;;;;14.63;12.20;;;;;21.40;100413.00;;;;2042724;28;20692;-55
2024/01/14 00:06:37;;;;;;;14.20;11.30;;;;;21.40;100406.00;;;;2045998;28;20236;-57
2024/01/14 00:07:38;;;;;;;16.43;12.80;;;;;21.40;100399.00;;;;2047205;28;20234;-56
2024/01/14 00:08:38;;;;;;;16.90;12.63;;;;;21.30;100430.00;;;;2046963;28;20271;-57
2024/01/14 00:09:38;;;;;;;14.50;11.53;;;;;21.30;100399.00;;;;2053562;28;20927;-55
2024/01/14 00:10:39;;;;;;;16.23;12.33;;;;;21.30;100399.00;;;;2053648;28;20633;-57
2024/01/14 00:11:39;;;;;;;13.53;11.50;;;;;21.30;100400.00;;;;2052120;28;20215;-58
2024/01/14 00:12:39;;;;;;;15.83;11.97;;;;;21.30;100401.00;;;;2043181;28;20703;-58
2024/01/14 00:13:40;;;;;;;15.17;12.03;;;;;21.30;100395.00;;;;2051728;28;20759;-59
2024/01/14 00:14:41;;;;;;;15.00;11.30;;;;;21.40;100394.00;;;;2049876;28;20695;-59
2024/01/14 00:15:42;;;;;;;13.02;11.20;;;;;21.30;100388.00;;;;2048464;28;20232;-56
2024/01/14 00:16:42;;;;;;;14.23;11.30;;;;;21.30;100394.00;;;;2047011;28;20613;-55
2024/01/14 00:17:43;;;;;;;16.47;12.20;;;;;21.30;100385.00;;;;2041759;28;20235;-57
2024/01/14 00:18:43;;;;;;;13.70;11.40;;;;;21.30;100391.00;;;;2048446;28;20228;-56
2024/01/14 00:19:44;;;;;;;15.67;12.00;;;;;21.30;100394.00;;;;2053932;28;20223;-57
2024/01/14 00:20:44;;;;;;;14.77;12.20;;;;;21.30;100393.00;;;;2051301;28;20219;-59
2024/01/14 00:21:44;;;;;;;14.43;10.90;;;;;21.30;100388.00;;;;2047155;28;20228;-57
2024/01/14 00:22:45;;;;;;;14.20;11.50;;;;;21.30;100387.00;;;;2041578;28;20231;-58
2024/01/14 00:23:45;;;;;;;14.00;11.60;;;;;21.30;100397.00;;;;2051186;28;20231;-56
2024/01/14 00:24:45;;;;;;;15.27;10.80;;;;;21.30;100391.00;;;;2055658;28;20687;-57
2024/01/14 00:25:46;;;;;;;14.63;11.07;;;;;21.30;100383.00;;;;2049838;28;20582;-58
2024/01/14 00:26:46;;;;;;;14.17;11.53;;;;;21.20;100395.00;;;;2049904;28;20714;-58
2024/01/14 00:27:46;;;;;;;13.57;11.10;;;;;21.20;100393.00;;;;2040058;28;20942;-57
2024/01/14 00:28:47;;;;;;;14.83;11.53;;;;;21.20;100390.00;;;;2053886;28;20739;-57
2024/01/14 00:29:47;;;;;;;14.20;10.87;;;;;21.20;100383.00;;;;2052803;28;20739;-58
2024/01/14 00:30:47;;;;;;;12.90;10.33;;;;;21.20;100373.00;;;;2048134;28;20216;-57
2024/01/14 00:31:48;;;;;;;13.60;10.70;;;;;21.20;100377.00;;;;2051174;28;20223;-56
2024/01/14 00:32:48;;;;;;;13.27;11.37;;;;;21.20;100370.00;;;;2041633;28;20231;-58
2024/01/14 00:33:49;;;;;;;14.27;10.87;;;;;21.20;100390.00;;;;2051171;28;20290;-58
2024/01/14 00:34:49;;;;;;;13.38;10.50;;;;;21.20;100395.00;;;;2050637;28;20231;-55
2024/01/14 00:35:50;;;;;;;16.03;10.30;;;;;21.20;100394.00;;;;2046046;28;20212;-56
2024/01/14 00:36:50;;;;;;;13.67;10.57;;;;;21.20;100395.00;;;;2047396;28;20332;-58
2024/01/14 00:37:51;;;;;;;13.33;10.60;;;;;21.20;100376.00;;;;2040891;28;20247;-58
2024/01/14 00:38:51;;;;;;;13.63;11.18;;;;;21.20;100386.00;;;;2048032;28;20246;-58
2024/01/14 00:39:52;;;;;;;14.10;10.37;;;;;21.20;100382.00;;;;2055401;28;20684;-55
2024/01/14 00:40:52;;;;;;;16.33;10.93;;;;;21.10;100374.00;;;;2053954;28;20236;-56
2024/01/14 00:41:52;;;;;;;14.20;10.80;;;;;21.10;100367.00;;;;2053222;28;20222;-58
2024/01/14 00:42:53;;;;;;;13.23;10.47;;;;;21.10;100370.00;;;;2046079;28;20223;-57
2024/01/14 00:43:53;;;;;;;12.83;10.33;;;;;21.10;100374.00;;;;2052563;28;20242;-58
2024/01/14 00:44:53;;;;;;;12.70;10.60;;;;;21.10;100374.00;;;;2056551;28;20220;-58
2024/01/14 00:45:54;;;;;;;12.63;10.00;;;;;21.10;100382.00;;;;2050837;28;20216;-56
2024/01/14 00:46:54;;;;;;;14.93;9.97;;;;;21.10;100376.00;;;;2049207;28;20216;-58
2024/01/14 00:47:54;;;;;;;12.37;9.53;;;;;21.10;100373.00;;;;2038975;28;20223;-55
2024/01/14 00:48:55;;;;;;;13.80;11.23;;;;;21.10;100373.00;;;;2052934;28;20230;-57
2024/01/14 00:49:55;;;;;;;11.60;9.50;;;;;21.10;100370.00;;;;2053428;28;20279;-58
2024/01/14 00:50:55;;;;;;;12.00;9.83;;;;;21.10;100376.00;;;;2052918;28;20281;-58
2024/01/14 00:51:56;;;;;;;13.37;10.97;;;;;21.10;100376.00;;;;2050997;28;20291;-58
2024/01/14 00:52:56;;;;;;;12.87;9.80;;;;;21.10;100365.00;;;;2037063;28;20251;-58
2024/01/14 00:53:56;;;;;;;13.30;10.13;;;;;21.10;100366.00;;;;2047869;28;20219;-55
2024/01/14 00:54:57;;;;;;;13.20;10.50;;;;;21.10;100369.00;;;;2047511;28;21037;-55
2024/01/14 00:55:57;;;;;;;11.20;9.87;;;;;21.00;100361.00;;;;2048925;28;20655;-56
2024/01/14 00:56:58;;;;;;;13.93;10.20;;;;;21.10;100372.00;;;;2053358;28;20265;-58
2024/01/14 00:57:58;;;;;;;13.10;10.50;;;;;21.10;100363.00;;;;2041283;28;20314;-57
2024/01/14 00:58:58;;;;;;;13.13;10.00;;;;;21.00;100363.00;;;;2053416;28;20323;-58
2024/01/14 00:59:58;;;;;;;12.13;9.70;;;;;21.00;100361.00;;;;2053371;28;20227;-57
2024/01/14 01:00:59;;;;;;;11.93;9.50;;;;;21.10;100354.00;;;;2048339;28;20289;-54
2024/01/14 01:01:59;;;;;;;11.57;9.40;;;;;21.00;100357.00;;;;2052006;28;20219;-56
2024/01/14 01:02:59;;;;;;;13.90;10.00;;;;;21.00;100365.00;;;;2038824;28;20223;-57
2024/01/14 01:04:00;;;;;;;11.80;8.93;;;;;21.00;100360.00;;;;2052347;28;20247;-58
2024/01/14 01:05:00;;;;;;;13.63;9.80;;;;;21.00;100355.00;;;;2045216;28;20251;-58
2024/01/14 01:06:00;;;;;;;13.43;9.87;;;;;21.00;100355.00;;;;2048913;28;20279;-58
2024/01/14 01:07:01;;;;;;;12.17;9.90;;;;;21.00;100352.00;;;;2041219;28;20228;-58
2024/01/14 01:08:01;;;;;;;11.30;9.40;;;;;21.00;100349.00;;;;2032026;28;20312;-56
2024/01/14 01:09:02;;;;;;;13.93;9.90;;;;;21.00;100355.00;;;;2050190;28;20224;-57
2024/01/14 01:10:03;;;;;;;14.00;10.17;;;;;21.00;100352.00;;;;2053739;28;20955;-58
2024/01/14 01:11:05;;;;;;;13.90;9.23;;;;;21.00;100348.00;;;;2049279;28;21156;-59
2024/01/14 01:12:06;;;;;;;11.80;9.52;;;;;21.00;100351.00;;;;2049193;28;20845;-56
2024/01/14 01:13:06;;;;;;;12.67;9.37;;;;;21.00;100356.00;;;;2037412;28;20223;-56
2024/01/14 01:14:07;;;;;;;12.20;9.17;;;;;21.00;100348.00;;;;2048242;28;20235;-58
2024/01/14 01:15:08;;;;;;;12.20;9.20;;;;;21.00;100346.00;;;;2045105;28;20703;-58
2024/01/14 01:16:08;;;;;;;12.52;9.30;;;;;21.00;100353.00;;;;2051984;28;20241;-57
2024/01/14 01:17:09;;;;;;;12.50;9.90;;;;;21.00;100343.00;;;;2052398;28;20279;-56
2024/01/14 01:18:09;;;;;;;11.00;9.07;;;;;21.00;100344.00;;;;2041773;28;20223;-56
2024/01/14 01:19:09;;;;;;;11.30;9.40;;;;;21.00;100341.00;;;;2053359;28;20246;-57
2024/01/14 01:20:10;;;;;;;11.60;9.23;;;;;21.00;100341.00;;;;2051065;28;20236;-57
2024/01/14 01:21:11;;;;;;;12.13;9.20;;;;;21.00;100343.00;;;;2053197;28;20219;-57
2024/01/14 01:22:11;;;;;;;11.87;9.10;;;;;20.90;100343.00;;;;2051800;28;20462;-56
2024/01/14 01:23:11;;;;;;;12.43;9.90;;;;;20.90;100338.00;;;;2045185;28;20207;-56
2024/01/14 01:24:14;;;;;;;11.27;8.97;;;;;20.90;100334.00;;;;2060588;28;20218;-57
2024/01/14 01:25:14;;;;;;;11.60;9.30;;;;;20.90;100338.00;;;;2053725;28;20311;-58
2024/01/14 01:26:15;;;;;;;11.23;9.00;;;;;20.90;100331.00;;;;2048079;28;20215;-57
2024/01/14 01:27:16;;;;;;;11.63;9.10;;;;;20.90;100325.00;;;;2045524;28;20239;-57
2024/01/14 01:28:17;;;;;;;13.18;9.35;;;;;20.90;100341.00;;;;2043047;28;20994;-56
2024/01/14 01:29:17;;;;;;;11.80;9.37;;;;;20.90;100333.00;;;;2053097;28;20227;-57
2024/01/14 01:30:17;;;;;;;11.73;8.83;;;;;20.90;100330.00;;;;2052517;28;20215;-56
2024/01/14 01:31:18;;;;;;;11.33;8.60;;;;;20.90;100333.00;;;;2051359;28;20639;-57
2024/01/14 01:32:18;;;;;;;11.93;9.00;;;;;20.90;100336.00;;;;2050955;28;20775;-56
2024/01/14 01:33:19;;;;;;;11.67;9.33;;;;;20.90;100324.00;;;;2044458;28;20627;-56
2024/01/14 01:34:19;;;;;;;11.77;9.43;;;;;20.90;100331.00;;;;2055829;28;20270;-56
2024/01/14 01:35:20;;;;;;;10.77;8.50;;;;;20.90;100335.00;;;;2048299;28;20228;-56
2024/01/14 01:36:21;;;;;;;11.30;8.95;;;;;20.90;100331.00;;;;2047404;28;20228;-56
2024/01/14 01:37:21;;;;;;;11.97;9.60;;;;;20.90;100335.00;;;;2050046;28;20716;-56
2024/01/14 01:38:21;;;;;;;11.17;9.43;;;;;20.90;100326.00;;;;2043269;28;20311;-56
2024/01/14 01:39:22;;;;;;;10.43;8.50;;;;;20.90;100337.00;;;;2052105;28;20215;-57
2024/01/14 01:40:22;;;;;;;11.17;8.97;;;;;20.80;100322.00;;;;2047425;28;20222;-57
2024/01/14 01:41:22;;;;;;;11.17;9.20;;;;;20.80;100320.00;;;;2051373;28;20491;-56
2024/01/14 01:42:23;;;;;;;12.10;8.20;;;;;20.80;100325.00;;;;2044181;28;20344;-57
2024/01/14 01:43:23;;;;;;;10.93;8.80;;;;;20.80;100331.00;;;;2044625;28;20282;-56
2024/01/14 01:44:24;;;;;;;11.17;8.73;;;;;20.80;100333.00;;;;2046854;28;20232;-56
2024/01/14 01:45:24;;;;;;;10.80;8.20;;;;;20.80;100331.00;;;;2050900;28;20329;-56
2024/01/14 01:46:24;;;;;;;11.50;8.80;;;;;20.80;100325.00;;;;2052809;28;20234;-56
2024/01/14 01:47:25;;;;;;;10.50;8.93;;;;;20.80;100333.00;;;;2042057;28;20223;-56
2024/01/14 01:48:25;;;;;;;11.13;9.13;;;;;20.80;100325.00;;;;2052500;28;20243;-56
2024/01/14 01:49:26;;;;;;;11.10;8.63;;;;;20.80;100325.00;;;;2051368;28;20215;-57
2024/01/14 01:50:27;;;;;;;11.30;8.40;;;;;20.80;100315.00;;;;2051922;28;20489;-56
2024/01/14 01:51:28;;;;;;;11.60;9.23;;;;;20.80;100331.00;;;;2051381;28;20267;-57
2024/01/14 01:52:29;;;;;;;10.60;8.83;;;;;20.80;100314.00;;;;2035637;28;20596;-57
2024/01/14 01:53:30;;;;;;;9.60;8.40;;;;;20.80;100331.00;;;;2042851;28;20228;-56
2024/01/14 01:54:30;;;;;;;11.03;8.00;;;;;20.80;100324.00;;;;2046347;28;20236;-56
2024/01/14 01:55:31;;;;;;;10.20;8.60;;;;;20.80;100331.00;;;;2044837;28;20475;-56
2024/01/14 01:56:31;;;;;;;11.23;8.70;;;;;20.80;100311.00;;;;2046464;28;20889;-56
2024/01/14 01:57:32;;;;;;;11.70;8.70;;;;;20.80;100286.00;;;;2046005;28;20226;-56
2024/01/14 01:58:32;;;;;;;9.43;7.70;;;;;20.80;100307.00;;;;2051083;28;20747;-56
2024/01/14 01:59:32;;;;;;;9.83;8.00;;;;;20.80;100305.00;;;;2044283;29;20664;-56
2024/01/14 02:00:34;;;;;;;10.90;7.90;;;;;20.80;100308.00;;;;2052210;28;20215;-56
2024/01/14 02:01:34;;;;;;;12.10;9.02;;;;;20.80;100308.00;;;;2051788;28;20243;-56
2024/01/14 02:02:35;;;;;;;11.37;9.07;;;;;20.80;100307.00;;;;2041336;28;20694;-56
2024/01/14 02:03:36;;;;;;;9.77;7.57;;;;;20.80;100301.00;;;;2044953;28;20326;-56
2024/01/14 02:04:36;;;;;;;10.87;9.13;;;;;20.10;100311.00;;;;2047728;28;20470;-56
2024/01/14 02:05:40;;;;;;;10.10;8.03;;;;;20.80;100299.00;;;;2041569;29;20251;-57
2024/01/14 02:06:40;;;;;;;10.73;8.40;;;;;20.80;100302.00;;;;2038197;28;20813;-57
2024/01/14 02:07:40;;;;;;;10.57;8.00;;;;;20.80;100298.00;;;;2042746;28;20334;-56
2024/01/14 02:08:41;;;;;;;11.40;8.20;;;;;20.70;100299.00;;;;2052273;28;20219;-57
2024/01/14 02:09:41;;;;;;;11.53;8.37;;;;;20.80;100276.00;;;;2044363;28;20220;-56
2024/01/14 02:10:41;;;;;;;9.73;8.13;;;;;20.70;100296.00;;;;2052361;28;20226;-56
2024/01/14 02:11:42;;;;;;;10.83;7.87;;;;;20.70;100301.00;;;;2042224;28;20402;-56
2024/01/14 02:12:42;;;;;;;10.30;8.03;;;;;20.70;100294.00;;;;2040812;28;20228;-60
2024/01/14 02:13:43;;;;;;;10.13;8.27;;;;;20.70;100288.00;;;;2052174;28;20211;-58
2024/01/14 02:14:43;;;;;;;10.37;7.80;;;;;20.70;100287.00;;;;2052002;28;20243;-57
2024/01/14 02:15:43;;;;;;;11.00;7.83;;;;;20.70;100288.00;;;;2045078;28;20216;-57
2024/01/14 02:16:44;;;;;;;8.97;7.30;;;;;20.70;100287.00;;;;2042605;28;20259;-56
2024/01/14 02:17:44;;;;;;;9.10;8.00;;;;;20.70;100292.00;;;;2027599;28;20220;-56
2024/01/14 02:18:44;;;;;;;10.90;8.17;;;;;20.70;100288.00;;;;2047327;28;20279;-56
2024/01/14 02:19:44;;;;;;;9.13;7.73;;;;;20.70;100286.00;;;;2058384;28;20257;-56
2024/01/14 02:20:45;;;;;;;10.40;8.30;;;;;20.70;100293.00;;;;2045639;28;20279;-56
2024/01/14 02:21:46;;;;;;;11.27;7.97;;;;;20.70;100288.00;;;;2051818;28;20214;-57
2024/01/14 02:22:46;;;;;;;10.37;8.27;;;;;20.70;100268.00;;;;2025504;29;20252;-57
2024/01/14 02:24:23;;;;;;;8.80;7.50;;;;;20.70;100278.00;;;;2043086;29;20212;-57
2024/01/14 02:25:23;;;;;;;9.95;7.75;;;;;20.70;100288.00;;;;2051800;28;20212;-57
2024/01/14 02:26:23;;;;;;;11.50;8.20;;;;;20.70;100280.00;;;;2046757;28;20222;-56
2024/01/14 02:27:24;;;;;;;9.50;7.60;;;;;20.70;100278.00;;;;2037034;28;20223;-57
2024/01/14 02:28:24;;;;;;;8.00;6.93;;;;;20.70;100281.00;;;;2047612;28;20219;-57
2024/01/14 02:29:27;;;;;;;9.67;7.60;;;;;20.70;100281.00;;;;2044107;29;20212;-57
2024/01/14 02:30:27;;;;;;;10.98;7.93;;;;;20.70;100279.00;;;;2040869;28;20208;-57
2024/01/14 02:31:28;;;;;;;9.37;7.40;;;;;20.70;100281.00;;;;2049115;28;20719;-56
2024/01/14 02:32:28;;;;;;;9.67;8.07;;;;;20.60;100282.00;;;;2042371;28;20682;-57
2024/01/14 02:33:28;;;;;;;9.77;7.83;;;;;20.70;100274.00;;;;2059380;28;20310;-57
2024/01/14 02:34:29;;;;;;;9.80;7.70;;;;;20.60;100277.00;;;;2046467;28;20224;-56
2024/01/14 02:35:29;;;;;;;9.50;7.83;;;;;20.60;100273.00;;;;2044055;28;20335;-56
2024/01/14 02:36:29;;;;;;;9.50;7.90;;;;;20.60;100280.00;;;;2046934;28;20271;-56
2024/01/14 02:37:30;;;;;;;7.97;6.83;;;;;20.60;100291.00;;;;2040487;28;20297;-56
2024/01/14 02:38:30;;;;;;;8.73;7.70;;;;;20.60;100274.00;;;;2050382;28;20577;-56
2024/01/14 02:39:30;;;;;;;8.73;7.03;;;;;20.60;100281.00;;;;2046705;28;20668;-57
2024/01/14 02:40:32;;;;;;;9.03;7.77;;;;;20.60;100268.00;;;;2044511;28;20596;-56
2024/01/14 02:41:33;;;;;;;8.95;7.70;;;;;20.60;100273.00;;;;2051009;28;20216;-57
2024/01/14 02:42:33;;;;;;;8.90;7.10;;;;;20.60;100271.00;;;;2037901;28;20222;-56
2024/01/14 02:43:33;;;;;;;10.07;7.83;;;;;20.60;100268.00;;;;2050036;28;20575;-56
2024/01/14 02:44:34;;;;;;;10.50;8.07;;;;;20.60;100273.00;;;;2043592;28;20252;-56
2024/01/14 02:45:34;;;;;;;10.10;6.80;;;;;20.60;100258.00;;;;2047099;28;20219;-56
2024/01/14 02:46:34;;;;;;;8.77;7.20;;;;;20.60;100257.00;;;;2044392;28;20633;-56
2024/01/14 02:47:35;;;;;;;9.83;7.73;;;;;20.60;100257.00;;;;2042980;28;20267;-57
2024/01/14 02:48:35;;;;;;;8.53;7.10;;;;;20.60;100257.00;;;;2052697;28;20223;-56
2024/01/14 02:49:35;;;;;;;9.10;7.17;;;;;20.60;100262.00;;;;2049194;28;20220;-56
2024/01/14 02:50:36;;;;;;;9.63;7.40;;;;;20.60;100259.00;;;;2051493;28;20335;-56
2024/01/14 02:51:36;;;;;;;8.50;7.20;;;;;20.10;100253.00;;;;2048784;28;20306;-57
2024/01/14 02:52:37;;;;;;;8.77;6.80;;;;;20.60;100259.00;;;;2038796;28;20222;-57
2024/01/14 02:53:37;;;;;;;10.67;7.87;;;;;20.60;100258.00;;;;2052096;28;20649;-56
2024/01/14 02:54:37;;;;;;;10.83;8.13;;;;;20.60;100262.00;;;;2052623;28;20243;-56
2024/01/14 02:55:38;;;;;;;9.87;7.40;;;;;20.60;100250.00;;;;2048247;28;20274;-56
2024/01/14 02:56:38;;;;;;;9.27;7.00;;;;;20.60;100262.00;;;;2048441;28;20219;-56
2024/01/14 02:57:39;;;;;;;8.37;6.50;;;;;20.60;100257.00;;;;2034614;28;20224;-56
2024/01/14 02:58:39;;;;;;;8.60;7.23;;;;;20.60;100260.00;;;;2050557;28;20232;-57
2024/01/14 02:59:39;;;;;;;9.63;7.87;;;;;20.50;100252.00;;;;2059533;28;20219;-56
2024/01/14 03:00:40;;;;;;;10.40;7.73;;;;;20.50;100256.00;;;;2042207;28;20223;-57
2024/01/14 03:01:46;;;;;;;9.40;6.77;;;;;20.50;100294.00;;;;2050867;28;20247;-56
2024/01/14 03:02:46;;;;;;;8.25;7.10;;;;;20.50;100252.00;;;;2042242;28;21077;-56
2024/01/14 03:03:47;;;;;;;10.93;8.30;;;;;20.50;100249.00;;;;2053609;28;20231;-56
2024/01/14 03:04:47;;;;;;;8.83;6.67;;;;;20.40;100254.00;;;;2051728;28;20231;-57
2024/01/14 03:05:48;;;;;;;9.70;7.60;;;;;20.50;100251.00;;;;2037047;29;20310;-56
2024/01/14 03:06:48;;;;;;;8.50;6.63;;;;;20.50;100247.00;;;;2044950;28;20251;-57
2024/01/14 03:07:48;;;;;;;10.03;8.00;;;;;20.50;100242.00;;;;2044025;28;20494;-59
2024/01/14 03:08:49;;;;;;;8.53;6.93;;;;;20.50;100250.00;;;;2049529;28;20220;-57
2024/01/14 03:09:49;;;;;;;9.83;7.13;;;;;20.50;100250.00;;;;2048983;28;20274;-57
2024/01/14 03:10:49;;;;;;;9.67;7.23;;;;;20.60;100250.00;;;;2050758;28;20219;-57
2024/01/14 03:11:50;;;;;;;10.33;7.80;;;;;20.50;100244.00;;;;2052062;28;20307;-57
2024/01/14 03:12:50;;;;;;;9.03;7.50;;;;;20.60;100251.00;;;;2043001;28;20238;-57
2024/01/14 03:13:50;;;;;;;8.60;6.60;;;;;20.60;100245.00;;;;2052936;28;20223;-56
2024/01/14 03:14:51;;;;;;;8.43;6.60;;;;;20.60;100242.00;;;;2053681;28;20251;-57
2024/01/14 03:15:51;;;;;;;8.47;7.37;;;;;20.50;100247.00;;;;2050931;28;20924;-57
2024/01/14 03:16:51;;;;;;;9.97;7.07;;;;;20.50;100249.00;;;;2045767;28;20243;-57
2024/01/14 03:17:52;;;;;;;9.57;7.27;;;;;20.50;100246.00;;;;2044294;28;20247;-57
2024/01/14 03:18:52;;;;;;;8.07;6.97;;;;;20.50;100242.00;;;;2046326;28;20228;-57
2024/01/14 03:19:52;;;;;;;9.10;7.27;;;;;20.50;100247.00;;;;2043615;28;20216;-56
2024/01/14 03:20:53;;;;;;;9.60;7.60;;;;;20.50;100233.00;;;;2040506;28;20241;-56
2024/01/14 03:21:53;;;;;;;10.40;7.47;;;;;20.50;100239.00;;;;2053552;28;20211;-56
2024/01/14 03:22:53;;;;;;;9.40;7.67;;;;;20.50;100239.00;;;;2042913;28;20290;-57
2024/01/14 03:23:54;;;;;;;9.60;7.23;;;;;20.50;100146.00;;;;2052950;28;20684;-57
2024/01/14 03:24:54;;;;;;;9.50;6.50;;;;;20.50;100274.00;;;;2052930;28;20247;-56
2024/01/14 03:25:54;;;;;;;9.93;7.37;;;;;20.50;100244.00;;;;2046165;28;20957;-56
2024/01/14 03:26:55;;;;;;;9.53;7.27;;;;;20.50;100235.00;;;;2050302;28;20631;-58
2024/01/14 03:27:55;;;;;;;8.10;6.53;;;;;20.50;100237.00;;;;2047552;28;20683;-57
2024/01/14 03:28:55;;;;;;;8.17;6.37;;;;;20.50;100234.00;;;;2061264;28;20904;-57
2024/01/14 03:29:56;;;;;;;10.20;7.70;;;;;20.50;100243.00;;;;2052617;28;20995;-57
2024/01/14 03:30:56;;;;;;;10.10;8.00;;;;;20.50;100238.00;;;;2049273;28;20685;-58
2024/01/14 03:31:56;;;;;;;10.20;7.37;;;;;20.50;100236.00;;;;2050354;28;20332;-57
2024/01/14 03:32:57;;;;;;;11.13;7.80;;;;;20.40;100232.00;;;;2040132;28;20254;-56
2024/01/14 03:33:57;;;;;;;9.50;7.77;;;;;20.40;100242.00;;;;2053026;28;20215;-56
2024/01/14 03:34:57;;;;;;;8.50;6.73;;;;;20.50;100232.00;;;;2052333;28;20242;-57
2024/01/14 03:36:00;;;;;;;11.17;7.97;;;;;20.40;100232.00;;;;2048091;28;20212;-56
2024/01/14 03:37:00;;;;;;;7.60;6.32;;;;;20.40;100225.00;;;;2049026;28;20220;-57
2024/01/14 03:38:00;;;;;;;8.80;6.83;;;;;20.40;100231.00;;;;2041301;28;20662;-57
2024/01/14 03:39:03;;;;;;;9.30;6.97;;;;;20.50;100228.00;;;;2048680;28;20683;-57
2024/01/14 03:40:05;;;;;;;9.75;7.35;;;;;20.50;100217.00;;;;2050256;28;20318;-56
2024/01/14 03:41:05;;;;;;;10.10;8.07;;;;;20.50;100223.00;;;;2052278;28;20222;-56
2024/01/14 03:42:05;;;;;;;9.03;7.50;;;;;20.40;100220.00;;;;2047011;28;20236;-56
2024/01/14 03:43:06;;;;;;;10.07;7.87;;;;;20.40;100216.00;;;;2040976;28;20234;-56
2024/01/14 03:44:06;;;;;;;10.67;8.07;;;;;20.40;100226.00;;;;2052054;28;20235;-56
2024/01/14 03:45:07;;;;;;;9.70;7.50;;;;;20.40;100219.00;;;;2048877;28;20248;-57
2024/01/14 03:46:09;;;;;;;9.57;7.43;;;;;20.40;100221.00;;;;2060081;28;20873;-55
2024/01/14 03:47:09;;;;;;;10.98;7.90;;;;;20.40;100210.00;;;;2057341;28;20311;-57
2024/01/14 03:48:09;;;;;;;10.10;7.83;;;;;20.40;100210.00;;;;2046317;28;20354;-56
2024/01/14 03:49:10;;;;;;;8.40;6.57;;;;;20.40;100212.00;;;;2043497;28;20224;-57
2024/01/14 03:50:10;;;;;;;9.60;8.00;;;;;20.40;100213.00;;;;2050054;28;20204;-56
2024/01/14 03:51:10;;;;;;;9.97;7.87;;;;;20.40;100217.00;;;;2046054;28;20205;-57
2024/01/14 03:52:11;;;;;;;10.27;7.47;;;;;20.40;100209.00;;;;2051926;28;20239;-56
2024/01/14 03:53:11;;;;;;;9.17;6.90;;;;;20.40;100208.00;;;;2039539;28;20216;-56
2024/01/14 03:54:11;;;;;;;9.23;7.30;;;;;20.40;100212.00;;;;2043924;28;20215;-56
2024/01/14 03:55:12;;;;;;;9.60;6.97;;;;;20.40;100210.00;;;;2048074;28;20334;-56
2024/01/14 03:56:12;;;;;;;10.47;7.47;;;;;20.40;100211.00;;;;2050739;28;20228;-55
2024/01/14 03:57:12;;;;;;;8.53;7.37;;;;;20.40;100214.00;;;;2052527;28;20234;-55
2024/01/14 03:58:13;;;;;;;10.20;7.73;;;;;20.40;100215.00;;;;2037684;28;20251;-56
2024/01/14 03:59:13;;;;;;;8.17;6.33;;;;;20.40;100205.00;;;;2051620;28;20231;-56
2024/01/14 04:00:14;;;;;;;9.33;7.83;;;;;20.40;100214.00;;;;2053847;28;20668;-57
2024/01/14 04:01:17;;;;;;;9.33;7.93;;;;;20.40;100210.00;;;;2053784;28;20591;-56
2024/01/14 04:02:18;;;;;;;9.10;7.28;;;;;20.40;100212.00;;;;2060360;28;20231;-57
2024/01/14 04:03:18;;;;;;;10.27;7.47;;;;;20.40;100212.00;;;;2047947;28;20229;-58
2024/01/14 04:04:18;;;;;;;10.03;7.17;;;;;20.40;100085.00;;;;2053524;28;21149;-55
2024/01/14 04:05:18;;;;;;;8.50;7.00;;;;;20.40;100228.00;;;;2042353;28;20784;-55
2024/01/14 04:06:20;;;;;;;9.50;7.47;;;;;20.40;100199.00;;;;2046113;28;20565;-55
2024/01/14 04:07:20;;;;;;;8.82;6.85;;;;;20.30;100209.00;;;;2044931;28;20283;-55
2024/01/14 04:08:21;;;;;;;9.57;7.00;;;;;20.30;100202.00;;;;2039288;28;20216;-55
2024/01/14 04:09:21;;;;;;;9.33;7.90;;;;;20.30;100207.00;;;;2048878;28;20274;-56
2024/01/14 04:10:21;;;;;;;8.90;7.57;;;;;20.30;100199.00;;;;2050901;28;20240;-57
2024/01/14 04:11:22;;;;;;;9.50;7.60;;;;;20.30;100204.00;;;;2049611;28;20216;-57
2024/01/14 04:12:23;;;;;;;9.50;7.10;;;;;20.40;100121.00;;;;2044303;28;20223;-57
2024/01/14 04:13:23;;;;;;;9.30;7.30;;;;;20.30;100214.00;;;;2045334;28;20459;-58
2024/01/14 04:14:23;;;;;;;7.40;6.33;;;;;20.30;100203.00;;;;2048931;28;20276;-57
2024/01/14 04:15:24;;;;;;;8.83;6.77;;;;;20.30;100200.00;;;;2049354;28;20219;-56
2024/01/14 04:16:24;;;;;;;8.50;6.60;;;;;20.30;100198.00;;;;2049135;28;20231;-56
2024/01/14 04:17:24;;;;;;;8.40;6.97;;;;;20.30;100209.00;;;;2045877;28;20226;-59
2024/01/14 04:18:25;;;;;;;9.03;6.70;;;;;20.30;100200.00;;;;2061114;28;20269;-57
2024/01/14 04:19:25;;;;;;;9.10;7.47;;;;;20.30;100201.00;;;;2052691;28;20215;-57
2024/01/14 04:20:25;;;;;;;9.57;7.07;;;;;20.30;100201.00;;;;2049238;28;20299;-57
2024/01/14 04:21:26;;;;;;;8.50;6.77;;;;;20.30;100200.00;;;;2045222;28;20220;-57
2024/01/14 04:22:26;;;;;;;8.13;6.50;;;;;20.30;100202.00;;;;2040751;28;20334;-56
2024/01/14 04:23:26;;;;;;;8.40;7.17;;;;;20.30;100176.00;;;;2044551;28;20220;-57
2024/01/14 04:24:27;;;;;;;9.60;7.17;;;;;20.30;100200.00;;;;2053484;28;20234;-57
2024/01/14 04:25:27;;;;;;;9.30;7.27;;;;;20.30;100195.00;;;;2049053;28;20244;-57
2024/01/14 04:26:27;;;;;;;9.27;6.83;;;;;20.30;100192.00;;;;2044633;28;20220;-57
2024/01/14 04:27:28;;;;;;;8.23;6.70;;;;;20.30;100186.00;;;;2039845;28;20232;-57
2024/01/14 04:28:28;;;;;;;8.60;6.40;;;;;20.30;100191.00;;;;2052760;28;20222;-57
2024/01/14 04:29:28;;;;;;;9.97;7.53;;;;;20.30;100188.00;;;;2048248;28;20258;-57
2024/01/14 04:30:29;;;;;;;9.30;6.47;;;;;20.30;100186.00;;;;2050323;28;20246;-57
2024/01/14 04:31:29;;;;;;;9.73;7.80;;;;;19.80;100184.00;;;;2049547;28;20428;-57
2024/01/14 04:32:29;;;;;;;9.10;7.00;;;;;20.30;100176.00;;;;2037691;28;20239;-57
2024/01/14 04:33:30;;;;;;;8.77;7.07;;;;;19.80;100173.00;;;;2046589;28;20234;-57
2024/01/14 04:34:31;;;;;;;7.77;6.90;;;;;20.30;100178.00;;;;2057670;28;20227;-58
2024/01/14 04:35:31;;;;;;;9.10;7.20;;;;;20.30;100181.00;;;;2059097;28;20819;-57
2024/01/14 04:36:31;;;;;;;10.20;7.80;;;;;20.30;100186.00;;;;2049867;28;21030;-57
2024/01/14 04:37:32;;;;;;;11.23;7.27;;;;;20.30;100193.00;;;;2039131;28;20356;-56
2024/01/14 04:38:32;;;;;;;8.90;7.00;;;;;20.30;100222.00;;;;2051099;28;20228;-56
2024/01/14 04:39:32;;;;;;;9.00;7.33;;;;;20.30;100184.00;;;;2053328;28;20687;-58
2024/01/14 04:40:33;;;;;;;8.10;6.97;;;;;20.20;100175.00;;;;2052569;28;21980;-57
2024/01/14 04:41:33;;;;;;;9.00;6.73;;;;;20.20;100178.00;;;;2051063;28;20707;-56
2024/01/14 04:42:33;;;;;;;7.60;6.60;;;;;20.20;100177.00;;;;2042372;28;20589;-56
2024/01/14 04:43:35;;;;;;;7.73;6.67;;;;;20.20;100171.00;;;;2050797;28;20588;-56
2024/01/14 04:44:35;;;;;;;9.30;7.53;;;;;20.20;100184.00;;;;2052616;28;20255;-56
2024/01/14 04:45:36;;;;;;;8.47;6.97;;;;;20.20;100163.00;;;;2052608;28;20212;-56
2024/01/14 04:46:37;;;;;;;9.83;7.07;;;;;20.20;100167.00;;;;2046608;28;20216;-58
2024/01/14 04:47:37;;;;;;;7.40;6.37;;;;;20.20;100164.00;;;;2037830;28;20211;-58
2024/01/14 04:48:37;;;;;;;10.00;7.80;;;;;20.20;100163.00;;;;2057095;28;20278;-58
2024/01/14 04:49:38;;;;;;;8.53;7.03;;;;;20.20;100167.00;;;;2061294;28;20211;-56
2024/01/14 04:50:41;;;;;;;9.67;7.60;;;;;20.20;100164.00;;;;2047143;28;20220;-57
2024/01/14 04:51:41;;;;;;;9.60;7.07;;;;;20.20;100156.00;;;;2045798;28;20624;-57
2024/01/14 04:52:42;;;;;;;9.33;7.50;;;;;20.20;100165.00;;;;2042635;28;20227;-57
2024/01/14 04:53:42;;;;;;;8.97;7.50;;;;;20.20;100163.00;;;;2059355;28;21109;-56
2024/01/14 04:54:42;;;;;;;8.40;7.07;;;;;20.20;100160.00;;;;2057538;28;20234;-56
2024/01/14 04:55:43;;;;;;;9.20;7.27;;;;;20.20;100161.00;;;;2046969;28;20307;-56
2024/01/14 04:56:43;;;;;;;8.17;6.70;;;;;20.20;100161.00;;;;2059130;28;20222;-58